ADDS METAR Data INFO
IDs: Format: Raw Decoded Include TAF

Data at: 0505 UTC 23 May 2017

KHYI 230455Z 01007KT 10SM FEW024 19/18 A2995 RMK AO1
KHYI 230435Z 02005KT 10SM CLR 19/17 A2993 RMK AO1
KHYI 230415Z 03005KT 10SM SCT024 19/18 A2992 RMK AO1
KHYI 230355Z 03005KT 10SM OVC024 19/18 A2993 RMK AO1
KHYI 230335Z 04005KT 10SM OVC024 20/18 A2993 RMK AO1
KHYI 230315Z 05004KT 10SM OVC022 20/18 A2993 RMK AO1
KHYI 230255Z 05004KT 10SM OVC022 20/19 A2992 RMK AO1 52003
KHYI 230235Z 05004KT 10SM OVC022 19/18 A2991 RMK AO1
KHYI 230215Z 03003KT 10SM BKN022 20/18 A2990 RMK AO1
KHYI 230155Z 03005KT 10SM FEW018 20/18 A2991 RMK AO1
KHYI 230135Z 05005KT 10SM FEW023 20/18 A2990 RMK AO1
KHYI 230115Z 05004KT 10SM BKN023 21/18 A2990 RMK AO1
KHYI 230055Z 04006KT 10SM OVC023 22/19 A2991 RMK AO1
KHYI 230035Z 05006KT 10SM FEW002 OVC021 22/19 A2991 RMK AO1
KHYI 230015Z 05007KT 10SM SCT002 OVC021 22/19 A2991 RMK AO1
KHYI 222355Z 05010KT 10SM OVC019 23/19 A2991 RMK AO1 10230 20220 57010
KHYI 222245Z 04008KT 10SM OVC019 23/19 A2991
KHYI 222145Z 05008KT 10SM OVC017 23/19 A2992
KHYI 222045Z 03009KT 10SM OVC013 23/19 A2994
KHYI 221945Z 03009KT 10SM OVC013 22/19 A2997
KHYI 221845Z 03010KT 10SM BKN013 OVC025 23/19 A2998
KHYI 221816Z 02011G14KT 10SM SCT011 BKN023 OVC030 23/19 A2998
KHYI 221745Z 02010KT 7SM BKN009 OVC018 22/18 A3000
KHYI 221647Z 02009KT 4SM BR OVC007 19/17 A3002
KHYI 221547Z 02009KT 6SM BR OVC009 19/17 A3003
KHYI 221526Z 01011G15KT 6SM BR BKN009 OVC016 18/16 A3003
KHYI 221447Z 02009KT 7SM FEW009 OVC014 18/16 A3004
KHYI 221427Z 02009KT 7SM FEW009 OVC014 17/16 A3004
KHYI 221348Z 01009KT 7SM OVC009 17/15 A3004
KHYI 221245Z 01012G19KT 7SM OVC006 17/15 A3003
KHYI 221146Z 01010KT 4SM BR OVC006 17/16 A3003 RMK FIRST
KHYI 221135Z 01009KT 8SM OVC006 17/16 A3002 RMK AO1
KHYI 221115Z 01007KT 10SM OVC006 17/16 A3002 RMK AO1
KHYI 221055Z 36003KT 10SM OVC006 17/16 A3002 RMK AO1
KHYI 221035Z 36007KT 10SM OVC009 17/16 A3002 RMK AO1
KHYI 221015Z 01008KT 10SM OVC009 17/16 A3002 RMK AO1
KHYI 220955Z 02009KT 10SM OVC009 17/16 A3002 RMK AO1
KHYI 220935Z 01007KT 10SM OVC011 17/16 A3002 RMK AO1
KHYI 220915Z 03008KT 10SM OVC013 17/16 A3002 RMK AO1
KHYI 220855Z 02010KT 10SM BKN015 OVC021 17/15 A3002 RMK AO1 60001 57017
KHYI 220835Z 02013KT 10SM FEW012 OVC021 16/15 A3003 RMK AO1
KHYI 220815Z 02010KT 10SM OVC019 16/15 A3004 RMK AO1
KHYI 220755Z 03006KT 360V060 10SM OVC021 17/15 A3004 RMK AO1 P0001
KHYI 220735Z 01008KT 10SM OVC021 17/16 A3007 RMK AO1 P0001
KHYI 220715Z 03007KT 10SM OVC021 17/16 A3008 RMK AO1
KHYI 220655Z 08005KT 10SM OVC023 17/16 A3007 RMK AO1
KHYI 220635Z 03006KT 10SM OVC025 17/16 A3006 RMK AO1
KHYI 220615Z 02005KT 10SM SCT025 BKN120 17/16 A3007 RMK AO1
KHYI 220555Z 04007KT 10SM BKN120 17/16 A3007 RMK AO1 10180 20170 402500170 57007
KHYI 220535Z 01007KT 10SM CLR 17/16 A3006 RMK AO1
KHYI 220515Z 03007G14KT 10SM FEW009 17/16 A3005 RMK AO1
KHYI 220455Z 03011G17KT 10SM FEW009 17/16 A3006 RMK AO1
KHYI 220435Z 01009KT 10SM FEW018 FEW039 SCT050 17/16 A3007 RMK AO1
KHYI 220415Z 02010KT 10SM FEW037 BKN046 BKN050 17/16 A3008 RMK AO1
KHYI 220355Z 36008KT 10SM FEW023 SCT028 BKN040 17/16 A3010 RMK AO1
KHYI 220335Z 02011G15KT 10SM SCT021 BKN031 BKN041 17/16 A3009 RMK AO1 LTG DSNT SW
KHYI 220315Z 03008KT 10SM FEW120 17/16 A3009 RMK AO1
KHYI 220255Z 02006KT 10SM FEW039 17/16 A3009 RMK AO1 LTG DSNT SW 52010
KHYI 220235Z 35011KT 10SM CLR 17/16 A3008 RMK AO1
KHYI 220215Z 36009KT 10SM FEW029 17/16 A3005 RMK AO1
KHYI 220155Z 01011G15KT 10SM FEW018 18/16 A3006 RMK AO1
KHYI 220135Z 01009KT 10SM FEW016 18/16 A3007 RMK AO1
KHYI 220115Z 36007G17KT 10SM FEW014 18/16 A3005 RMK AO1
KHYI 220055Z 34012G18KT 10SM CLR 18/17 A3003 RMK AO1 WSHFT 06 LTG DSNT N TSE12
KHYI 220035Z 35011G23KT 10SM FEW033 FEW050 18/17 A3003 RMK AO1 WSHFT 06 LTG DSNT N TSE12
KHYI 220015Z 02017G24KT 10SM FEW027 BKN034 OVC050 18/17 A2999 RMK AO1 LTG DSNT N TSE12
KHYI 212355Z 03014KT 10SM TS FEW016 SCT024 BKN032 18/17 A3006 RMK AO1 LTG DSNT ALQDS 10250 20180 52010
KHYI 212345Z 36005KT 2SM RA FEW014 BKN021 OVC048 19/17 A3009 RMK FREQ LGT N MOV NE
KHYI 212308Z 02011G17KT 3SM TS FEW028 BKN032 OVC048 22/16 A3009 RMK LGT OVHD CG TSB08
KHYI 212245Z 02011G17KT 10SM BKN050 23/16 A3003
KHYI 212145Z 02011G17KT 10SM FEW100 24/16 A3003
KHYI 212045Z 01011G21KT 10SM SCT026 24/16 A3003
KHYI 211945Z 01011KT 10SM OVC026 23/15 A3007
KHYI 211849Z 03013G20KT 10SM BKN024 OVC034 24/17 A3006
KHYI 211745Z 02018G23KT 10SM BKN018 BKN026 25/18 A3005


Page loaded:  05:05 UTC  |   10:05 PM Pacific  |   11:05 PM Mountain  |   12:05 AM Central  |   01:05 AM Eastern

 

ADVISORIES

FORECASTS

FORECASTS

OBSERVATIONS

USER TOOLS

ABOUT US